createdAt,value
2019-05-14T00:01:37.367Z,103713.04
2019-05-14T00:04:03.259Z,103702.86
2019-05-14T00:06:31.107Z,103702.86
2019-05-14T00:08:56.879Z,103715.48
2019-05-14T00:11:22.730Z,103714.61
2019-05-14T00:13:48.581Z,103702.57
2019-05-14T00:16:14.432Z,103708.03
2019-05-14T00:18:41.986Z,103709.28
2019-05-14T00:21:08.062Z,103713.86
2019-05-14T00:23:33.923Z,103701.62
2019-05-14T00:26:01.695Z,103704.36
2019-05-14T00:28:27.545Z,103709.28
2019-05-14T00:30:53.398Z,103699.62
2019-05-14T00:33:19.278Z,103694.20
2019-05-14T00:35:45.137Z,103701.04
2019-05-14T00:38:11.933Z,103692.73
2019-05-14T00:40:37.898Z,103695.43
2019-05-14T00:43:03.772Z,103709.94
2019-05-14T00:45:31.325Z,103704.56
2019-05-14T00:47:58.301Z,103694.17
2019-05-14T00:50:24.172Z,103697.37
2019-05-14T00:52:51.678Z,103685.65
2019-05-14T00:55:17.685Z,103681.87
2019-05-14T00:57:43.541Z,103675.62
2019-05-14T01:00:11.591Z,103685.48
2019-05-14T01:02:37.370Z,103671.48
2019-05-14T01:05:05.629Z,103677.83
2019-05-14T01:07:31.704Z,103669.48
2019-05-14T01:09:57.577Z,103675.80
2019-05-14T01:12:23.449Z,103672.89
2019-05-14T01:14:51.496Z,103673.02
2019-05-14T01:17:17.057Z,103656.84
2019-05-14T01:19:42.918Z,103657.69
2019-05-14T01:22:08.776Z,103648.98
2019-05-14T01:24:34.635Z,103654.17
2019-05-14T01:27:01.627Z,103645.47
2019-05-14T01:29:27.756Z,103663.00
2019-05-14T01:31:53.625Z,103656.56
2019-05-14T01:34:21.464Z,103669.34
2019-05-14T01:36:47.240Z,103666.41
2019-05-14T01:39:13.112Z,103658.83
2019-05-14T01:41:38.962Z,103656.04
2019-05-14T01:44:04.814Z,103670.44
2019-05-14T01:46:31.645Z,103670.94
2019-05-14T01:48:57.731Z,103670.13
2019-05-14T01:51:23.774Z,103666.61
2019-05-14T01:53:51.938Z,103672.56
2019-05-14T01:56:17.390Z,103673.23
2019-05-14T01:58:43.292Z,103668.86
2019-05-14T02:01:09.158Z,103659.09
2019-05-14T02:03:35.017Z,103662.11
2019-05-14T02:06:01.509Z,103659.29
2019-05-14T02:08:27.739Z,103665.45
2019-05-14T02:10:53.607Z,103661.83
2019-05-14T02:13:21.418Z,103676.79
2019-05-14T02:15:47.235Z,103677.80
2019-05-14T02:18:13.303Z,103674.58
2019-05-14T02:20:41.441Z,103671.67
2019-05-14T02:23:07.427Z,103669.12
2019-05-14T02:25:33.292Z,103680.11
2019-05-14T02:28:01.176Z,103674.30
2019-05-14T02:30:41.359Z,103671.88
2019-05-14T02:32:54.694Z,103669.73
2019-05-14T02:35:20.634Z,103668.66
2019-05-14T02:37:50.196Z,103666.27
2019-05-14T02:40:14.681Z,103666.48
2019-05-14T02:42:40.633Z,103666.55
2019-05-14T02:45:08.922Z,103665.12
2019-05-14T02:47:34.921Z,103671.77
2019-05-14T02:50:00.789Z,103671.52
2019-05-14T02:52:29.179Z,103669.34
2019-05-14T02:54:54.445Z,103671.58
2019-05-14T02:57:20.364Z,103665.16
2019-05-14T02:59:46.246Z,103672.43
2019-05-14T03:02:12.106Z,103665.88
2019-05-14T03:04:39.473Z,103673.69
2019-05-14T03:07:05.818Z,103660.55
2019-05-14T03:09:31.694Z,103665.07
2019-05-14T03:11:59.508Z,103658.01
2019-05-14T03:14:25.317Z,103657.28
2019-05-14T03:16:51.179Z,103656.83
2019-05-14T03:19:19.603Z,103639.93
2019-05-14T03:21:44.954Z,103639.84
2019-05-14T03:24:10.943Z,103640.36
2019-05-14T03:26:39.854Z,103642.09
2019-05-14T03:29:04.878Z,103642.41
2019-05-14T03:31:32.966Z,103651.05
2019-05-14T03:34:03.108Z,103632.52
2019-05-14T03:36:33.481Z,103631.22
2019-05-14T03:38:54.296Z,103627.94
2019-05-14T03:41:20.680Z,103637.60
2019-05-14T03:43:49.147Z,103636.72
2019-05-14T03:46:14.401Z,103627.75
2019-05-14T03:48:40.561Z,103628.81
2019-05-14T03:51:09.004Z,103640.20
2019-05-14T03:53:52.233Z,103628.56
2019-05-14T03:56:02.790Z,103625.50
2019-05-14T03:58:29.969Z,103626.67
2019-05-14T04:01:00.683Z,103623.84
2019-05-14T04:03:29.585Z,103626.25
2019-05-14T04:05:59.405Z,103620.09
2019-05-14T04:08:29.061Z,103620.69
2019-05-14T04:10:54.551Z,103622.16
2019-05-14T04:13:22.287Z,103633.25
2019-05-14T04:15:50.253Z,103613.19
2019-05-14T04:18:18.510Z,103622.74
2019-05-14T04:20:45.582Z,103624.22
2019-05-14T04:23:14.249Z,103629.44
2019-05-14T04:25:40.123Z,103627.56
2019-05-14T04:28:12.526Z,103618.62
2019-05-14T04:30:40.300Z,103618.34
2019-05-14T04:33:10.377Z,103615.22
2019-05-14T04:35:34.914Z,103619.58
2019-05-14T04:38:00.808Z,103634.61
2019-05-14T04:40:29.623Z,103636.67
2019-05-14T04:42:54.462Z,103624.31
2019-05-14T04:45:20.302Z,103631.92
2019-05-14T04:47:49.533Z,103620.52
2019-05-14T04:50:14.239Z,103628.22
2019-05-14T04:52:40.743Z,103629.70
2019-05-14T04:55:09.630Z,103627.09
2019-05-14T04:57:34.665Z,103616.34
2019-05-14T05:00:00.536Z,103607.25
2019-05-14T05:02:29.830Z,103607.48
2019-05-14T05:04:54.151Z,103610.27
2019-05-14T05:07:20.007Z,103613.94
2019-05-14T05:09:45.873Z,103606.97
2019-05-14T05:12:11.760Z,103608.20
2019-05-14T05:14:38.846Z,103608.22
2019-05-14T05:17:05.222Z,103615.57
2019-05-14T05:19:31.065Z,103614.72
2019-05-14T05:21:58.718Z,103604.01
2019-05-14T05:24:24.712Z,103599.63
2019-05-14T05:26:50.570Z,103612.67
2019-05-14T05:29:18.642Z,103601.97
2019-05-14T05:31:44.280Z,103600.02
2019-05-14T05:34:10.145Z,103601.12
2019-05-14T05:36:38.029Z,103593.71
2019-05-14T05:39:05.392Z,103605.08
2019-05-14T05:41:31.261Z,103607.48
2019-05-14T05:43:58.864Z,103600.39
2019-05-14T05:46:24.943Z,103605.41
2019-05-14T05:48:50.821Z,103608.59
2019-05-14T05:51:18.709Z,103601.74
2019-05-14T05:53:44.499Z,103611.30
2019-05-14T05:56:10.370Z,103595.06
2019-05-14T05:58:36.243Z,103600.08
2019-05-14T06:01:02.107Z,103590.15
2019-05-14T06:03:30.034Z,103601.48
2019-05-14T06:05:59.155Z,103593.47
2019-05-14T06:08:24.500Z,103585.03
2019-05-14T06:10:50.364Z,103590.47
2019-05-14T06:13:18.273Z,103588.38
2019-05-14T06:15:48.508Z,103597.62
2019-05-14T06:18:18.067Z,103591.88
2019-05-14T06:20:39.778Z,103578.97
2019-05-14T06:23:08.294Z,103591.88
2019-05-14T06:25:33.924Z,103588.13
2019-05-14T06:27:59.780Z,103584.80
2019-05-14T06:30:39.596Z,103579.55
2019-05-14T06:33:05.502Z,103583.68
2019-05-14T06:35:31.330Z,103574.73
2019-05-14T06:37:58.242Z,103575.85
2019-05-14T06:40:24.468Z,103582.81
2019-05-14T06:42:50.393Z,103589.38
2019-05-14T06:45:18.611Z,103589.05
2019-05-14T06:47:44.001Z,103586.72
2019-05-14T06:50:09.966Z,103589.13
2019-05-14T06:52:35.825Z,103591.95
2019-05-14T06:55:03.890Z,103588.33
2019-05-14T06:57:29.780Z,103577.27
2019-05-14T06:59:55.664Z,103566.13
2019-05-14T07:02:21.717Z,103569.29
2019-05-14T07:04:48.424Z,103568.81
2019-05-14T07:07:14.589Z,103569.06
2019-05-14T07:09:40.447Z,103565.72
2019-05-14T07:12:08.873Z,103570.56
2019-05-14T07:14:34.072Z,103580.92
2019-05-14T07:16:59.937Z,103570.79
2019-05-14T07:19:25.818Z,103572.83
2019-05-14T07:21:51.688Z,103571.00
2019-05-14T07:24:19.609Z,103581.38
2019-05-14T07:26:45.288Z,103577.34
2019-05-14T07:29:11.738Z,103573.88
2019-05-14T07:31:38.437Z,103585.61
2019-05-14T07:34:04.517Z,103574.31
2019-05-14T07:36:30.398Z,103564.66
2019-05-14T07:38:57.582Z,103571.80
2019-05-14T07:41:24.009Z,103584.95
2019-05-14T07:43:49.882Z,103584.45
2019-05-14T07:46:15.739Z,103573.16
2019-05-14T07:48:41.600Z,103571.44
2019-05-14T07:51:08.847Z,103567.98
2019-05-14T07:53:38.919Z,103556.32
2019-05-14T07:56:02.826Z,103570.55
2019-05-14T07:58:28.676Z,103573.03
2019-05-14T08:00:54.565Z,103557.14
2019-05-14T08:03:20.429Z,103552.61
2019-05-14T08:05:48.264Z,103554.47
2019-05-14T08:08:14.066Z,103556.53
2019-05-14T08:10:39.915Z,103563.20
2019-05-14T08:13:08.337Z,103553.83
2019-05-14T08:15:33.735Z,103563.77
2019-05-14T08:17:59.598Z,103564.86
2019-05-14T08:20:25.466Z,103564.19
2019-05-14T08:22:51.351Z,103556.03
2019-05-14T08:25:19.016Z,103555.21
2019-05-14T08:27:44.985Z,103550.78
2019-05-14T08:30:11.352Z,103552.88
2019-05-14T08:32:39.087Z,103546.35
2019-05-14T08:35:05.169Z,103546.12
2019-05-14T08:37:31.020Z,103547.11
2019-05-14T08:39:58.824Z,103540.59
2019-05-14T08:42:24.653Z,103541.30
2019-05-14T08:44:51.424Z,103548.09
2019-05-14T08:47:18.385Z,103543.38
2019-05-14T08:49:46.648Z,103539.18
2019-05-14T08:52:15.882Z,103528.96
2019-05-14T08:54:40.161Z,103526.97
2019-05-14T08:57:06.196Z,103518.42
2019-05-14T08:59:32.882Z,103525.13
2019-05-14T09:02:06.162Z,103523.53
2019-05-14T09:04:29.807Z,103505.33
2019-05-14T09:06:54.307Z,103505.17
2019-05-14T09:09:22.121Z,103491.72
2019-05-14T09:11:50.437Z,103491.45
2019-05-14T09:14:15.788Z,103486.97
2019-05-14T09:16:46.726Z,103490.80
2019-05-14T09:19:09.406Z,103487.41
2019-05-14T09:21:35.274Z,103485.19
2019-05-14T09:24:01.140Z,103478.97
2019-05-14T09:26:28.519Z,103483.43
2019-05-14T09:28:54.466Z,103482.54
2019-05-14T09:31:20.361Z,103492.38
2019-05-14T09:33:46.190Z,103486.16
2019-05-14T09:36:19.608Z,103481.55
2019-05-14T09:38:42.262Z,103475.44
2019-05-14T09:41:14.376Z,103482.77
2019-05-14T09:43:35.707Z,103479.88
2019-05-14T09:46:01.575Z,103479.16
2019-05-14T09:48:28.603Z,103470.37
2019-05-14T09:50:54.660Z,103467.23
2019-05-14T09:53:20.550Z,103465.58
2019-05-14T09:55:46.414Z,103457.07
2019-05-14T09:58:12.279Z,103468.41
2019-05-14T10:00:38.997Z,103464.59
2019-05-14T10:03:05.126Z,103459.20
2019-05-14T10:05:30.981Z,103463.16
2019-05-14T10:07:59.271Z,103464.09
2019-05-14T10:10:24.649Z,103463.46
2019-05-14T10:12:56.310Z,103456.87
2019-05-14T10:15:18.450Z,103459.71
2019-05-14T10:17:44.332Z,103455.55
2019-05-14T10:20:10.306Z,103455.20
2019-05-14T10:22:36.388Z,103461.62
2019-05-14T10:25:03.347Z,103449.09
2019-05-14T10:27:29.198Z,103452.42
2019-05-14T10:29:55.065Z,103444.63
2019-05-14T10:32:20.916Z,103434.04
2019-05-14T10:34:48.537Z,103427.48
2019-05-14T10:37:14.556Z,103428.62
2019-05-14T10:39:40.436Z,103431.41
2019-05-14T10:42:08.666Z,103421.45
2019-05-14T10:44:34.072Z,103415.59
2019-05-14T10:47:00.201Z,103402.22
2019-05-14T10:49:26.051Z,103404.98
2019-05-14T10:51:51.933Z,103398.52
2019-05-14T10:54:24.969Z,103401.28
2019-05-14T10:56:45.559Z,103392.24
2019-05-14T10:59:11.417Z,103398.22
2019-05-14T11:01:39.086Z,103396.18
2019-05-14T11:04:05.060Z,103395.47
2019-05-14T11:06:30.934Z,103386.22
2019-05-14T11:08:56.798Z,103387.46
2019-05-14T11:11:22.770Z,103372.80
2019-05-14T11:13:48.642Z,103375.92
2019-05-14T11:16:14.510Z,103367.79
2019-05-14T11:18:40.523Z,103365.31
2019-05-14T11:21:19.913Z,103366.97
2019-05-14T11:23:34.264Z,103360.45
2019-05-14T11:26:00.105Z,103362.34
2019-05-14T11:28:28.343Z,103354.78
2019-05-14T11:30:53.769Z,103346.22
2019-05-14T11:33:19.729Z,103348.25
2019-05-14T11:35:45.564Z,103339.84
2019-05-14T11:38:27.946Z,103348.16
2019-05-14T11:40:39.202Z,103336.69
2019-05-14T11:43:05.077Z,103338.56
2019-05-14T11:45:30.953Z,103342.59
2019-05-14T11:47:58.439Z,103333.03
2019-05-14T11:50:24.381Z,103329.12
2019-05-14T11:52:50.253Z,103313.97
2019-05-14T11:55:18.606Z,103324.08
2019-05-14T11:57:43.982Z,103320.07
2019-05-14T12:00:10.462Z,103321.71
2019-05-14T12:02:38.436Z,103319.30
2019-05-14T12:05:05.536Z,103320.94
2019-05-14T12:07:31.393Z,103324.92
2019-05-14T12:09:57.253Z,103318.20
2019-05-14T12:12:23.106Z,103318.69
2019-05-14T12:14:48.997Z,103303.66
2019-05-14T12:17:14.858Z,103300.72
2019-05-14T12:19:43.540Z,103312.14
2019-05-14T12:22:11.929Z,103297.67
2019-05-14T12:24:38.555Z,103296.19
2019-05-14T12:27:04.027Z,103293.16
2019-05-14T12:29:29.903Z,103291.52
2019-05-14T12:31:55.763Z,103266.52
2019-05-14T12:34:21.671Z,103272.04
2019-05-14T12:36:49.317Z,103262.05
2019-05-14T12:39:15.292Z,103260.16
2019-05-14T12:41:41.146Z,103255.78
2019-05-14T12:44:09.281Z,103254.50
2019-05-14T12:46:34.799Z,103258.45
2019-05-14T12:49:01.249Z,103266.67
2019-05-14T12:51:27.235Z,103259.91
2019-05-14T12:53:53.100Z,103260.20
2019-05-14T12:56:19.129Z,103246.27
2019-05-14T12:58:46.763Z,103249.49
2019-05-14T13:01:13.794Z,103244.78
2019-05-14T13:03:40.313Z,103252.25
2019-05-14T13:06:06.177Z,103257.48
2019-05-14T13:08:32.059Z,103249.39
2019-05-14T13:10:58.749Z,103241.11
2019-05-14T13:13:24.705Z,103227.64
2019-05-14T13:15:50.573Z,103224.76
2019-05-14T13:18:19.169Z,103234.98
2019-05-14T13:20:44.240Z,103227.29
2019-05-14T13:23:10.232Z,103227.05
2019-05-14T13:25:39.020Z,103228.70
2019-05-14T13:28:04.614Z,103218.77
2019-05-14T13:30:30.603Z,103220.47
2019-05-14T13:32:59.058Z,103206.84
2019-05-14T13:35:24.238Z,103209.20
2019-05-14T13:37:50.095Z,103200.80
2019-05-14T13:40:16.288Z,103195.30
2019-05-14T13:42:44.603Z,103187.09
2019-05-14T13:45:10.612Z,103179.11
2019-05-14T13:47:38.714Z,103169.06
2019-05-14T13:50:08.290Z,103165.55
2019-05-14T13:52:33.907Z,103159.45
2019-05-14T13:55:00.058Z,103170.24
2019-05-14T13:57:28.542Z,103164.87
2019-05-14T13:59:53.759Z,103161.14
2019-05-14T14:02:19.615Z,103169.37
2019-05-14T14:04:45.485Z,103156.42
2019-05-14T14:07:11.441Z,103159.61
2019-05-14T14:09:39.576Z,103159.43
2019-05-14T14:12:05.052Z,103158.62
2019-05-14T14:14:30.924Z,103145.63
2019-05-14T14:16:58.250Z,103138.17
2019-05-14T14:19:24.257Z,103131.58
2019-05-14T14:21:50.123Z,103126.08
2019-05-14T14:24:15.989Z,103113.52
2019-05-14T14:26:41.952Z,103124.79
2019-05-14T14:29:09.240Z,103123.21
2019-05-14T14:31:35.371Z,103105.55
2019-05-14T14:34:01.252Z,103113.25
2019-05-14T14:36:29.962Z,103114.52
2019-05-14T14:38:54.877Z,103102.92
2019-05-14T14:41:20.729Z,103101.73
2019-05-14T14:43:52.903Z,103102.25
2019-05-14T14:46:14.610Z,103093.97
2019-05-14T14:48:40.594Z,103095.13
2019-05-14T14:51:08.491Z,103099.09
2019-05-14T14:53:51.307Z,103105.19
2019-05-14T14:56:02.029Z,103088.53
2019-05-14T14:58:28.640Z,103100.25
2019-05-14T15:00:54.631Z,103098.46
2019-05-14T15:03:21.182Z,103102.16
2019-05-14T15:05:49.904Z,103088.88
2019-05-14T15:08:15.341Z,103089.73
2019-05-14T15:10:41.204Z,103084.25
2019-05-14T15:13:09.325Z,103092.22
2019-05-14T15:15:34.845Z,103094.89
2019-05-14T15:18:00.705Z,103095.72
2019-05-14T15:20:29.002Z,103086.07
2019-05-14T15:22:54.351Z,103079.66
2019-05-14T15:25:20.204Z,103078.56
2019-05-14T15:27:46.067Z,103066.45
2019-05-14T15:30:12.158Z,103064.37
2019-05-14T15:32:38.025Z,103062.80
2019-05-14T15:35:10.753Z,103058.01
2019-05-14T15:37:34.706Z,103051.31
2019-05-14T15:40:03.786Z,103041.65
2019-05-14T15:42:28.535Z,103047.95
2019-05-14T15:44:56.124Z,103038.55
2019-05-14T15:47:22.239Z,103041.16
2019-05-14T15:49:48.901Z,103035.01
2019-05-14T15:52:14.965Z,103029.23
2019-05-14T15:54:46.776Z,103030.33
2019-05-14T15:57:09.139Z,103025.88
2019-05-14T15:59:35.060Z,103030.66
2019-05-14T16:02:00.940Z,103018.45
2019-05-14T16:04:28.700Z,103020.50
2019-05-14T16:06:54.792Z,103013.18
2019-05-14T16:09:20.688Z,103009.72
2019-05-14T16:11:48.309Z,103001.78
2019-05-14T16:14:14.330Z,103005.11
2019-05-14T16:16:40.197Z,103004.00
2019-05-14T16:19:08.091Z,103003.39
2019-05-14T16:21:33.908Z,103001.14
2019-05-14T16:23:59.767Z,102994.61
2019-05-14T16:26:25.724Z,102995.38
2019-05-14T16:28:51.577Z,102999.06
2019-05-14T16:31:19.425Z,102999.02
2019-05-14T16:33:45.286Z,102997.29
2019-05-14T16:36:11.174Z,103005.69
2019-05-14T16:38:39.509Z,102998.91
2019-05-14T16:41:05.012Z,103006.19
2019-05-14T16:43:32.431Z,103004.01
2019-05-14T16:45:59.861Z,103007.94
2019-05-14T16:48:25.826Z,102997.44
2019-05-14T16:50:51.684Z,103004.93
2019-05-14T16:53:19.532Z,102999.72
2019-05-14T16:55:45.531Z,102985.66
2019-05-14T16:58:11.509Z,102991.14
2019-05-14T17:00:37.588Z,102994.69
2019-05-14T17:03:03.440Z,102981.65
2019-05-14T17:05:30.206Z,102987.20
2019-05-14T17:07:58.543Z,102985.09
2019-05-14T17:10:24.040Z,102995.02
2019-05-14T17:12:56.852Z,102992.17
2019-05-14T17:15:18.184Z,102984.59
2019-05-14T17:17:44.037Z,102975.55
2019-05-14T17:20:09.888Z,102984.39
2019-05-14T17:22:35.740Z,102977.41
2019-05-14T17:25:01.642Z,102982.14
2019-05-14T17:27:28.522Z,102977.16
2019-05-14T17:29:54.652Z,102981.20
2019-05-14T17:32:20.501Z,102966.22
2019-05-14T17:34:48.906Z,102971.12
2019-05-14T17:37:14.243Z,102970.98
2019-05-14T17:39:40.105Z,102963.88
2019-05-14T17:42:11.352Z,102964.97
2019-05-14T17:44:33.760Z,102967.36
2019-05-14T17:46:59.626Z,102967.74
2019-05-14T17:49:25.500Z,102966.83
2019-05-14T17:51:51.350Z,102973.36
2019-05-14T17:54:18.484Z,102958.38
2019-05-14T17:56:44.563Z,102952.70
2019-05-14T17:59:10.436Z,102951.18
2019-05-14T18:01:36.337Z,102957.00
2019-05-14T18:04:02.412Z,102954.38
2019-05-14T18:06:28.698Z,102943.73
2019-05-14T18:08:54.652Z,102941.78
2019-05-14T18:11:20.549Z,102940.25
2019-05-14T18:13:48.428Z,102945.64
2019-05-14T18:16:14.378Z,102942.02
2019-05-14T18:18:40.242Z,102933.67
2019-05-14T18:21:06.074Z,102926.76
2019-05-14T18:23:31.993Z,102938.67
2019-05-14T18:26:04.957Z,102938.16
2019-05-14T18:28:25.602Z,102937.88
2019-05-14T18:30:51.488Z,102930.36
2019-05-14T18:33:18.766Z,102937.00
2019-05-14T18:35:47.451Z,102933.23
2019-05-14T18:38:12.539Z,102933.48
2019-05-14T18:40:39.753Z,102923.82
2019-05-14T18:43:08.691Z,102934.45
2019-05-14T18:45:34.576Z,102934.52
2019-05-14T18:48:00.452Z,102934.10
2019-05-14T18:50:28.749Z,102930.39
2019-05-14T18:52:54.639Z,102934.19
2019-05-14T18:55:20.498Z,102933.46
2019-05-14T18:57:48.676Z,102925.56
2019-05-14T19:00:15.320Z,102935.63
2019-05-14T19:02:44.935Z,102928.47
2019-05-14T19:05:11.612Z,102929.98
2019-05-14T19:07:39.497Z,102928.65
2019-05-14T19:10:06.114Z,102927.77
2019-05-14T19:12:31.993Z,102920.31
2019-05-14T19:14:58.976Z,102925.23
2019-05-14T19:17:25.129Z,102932.66
2019-05-14T19:19:51.007Z,102919.77
2019-05-14T19:22:16.866Z,102921.13
2019-05-14T19:24:42.709Z,102927.47
2019-05-14T19:27:09.164Z,102927.09
2019-05-14T19:29:35.143Z,102929.20
2019-05-14T19:32:00.997Z,102935.52
2019-05-14T19:34:28.707Z,102934.76
2019-05-14T19:36:54.644Z,102931.13
2019-05-14T19:39:20.507Z,102933.13
2019-05-14T19:41:48.274Z,102934.72
2019-05-14T19:44:14.121Z,102941.02
2019-05-14T19:46:40.021Z,102935.36
2019-05-14T19:49:08.010Z,102930.97
2019-05-14T19:51:33.691Z,102937.22
2019-05-14T19:53:59.651Z,102939.33
2019-05-14T19:56:25.526Z,102942.46
2019-05-14T19:58:51.400Z,102944.19
2019-05-14T20:01:19.354Z,102940.90
2019-05-14T20:03:45.053Z,102941.28
2019-05-14T20:06:10.919Z,102945.37
2019-05-14T20:08:38.812Z,102943.26
2019-05-14T20:11:04.669Z,102941.27
2019-05-14T20:13:30.875Z,102938.35
2019-05-14T20:15:58.914Z,102945.13
2019-05-14T20:18:24.621Z,102944.86
2019-05-14T20:20:50.653Z,102936.84
2019-05-14T20:23:18.563Z,102947.84
2019-05-14T20:25:44.252Z,102939.79
2019-05-14T20:28:10.125Z,102942.19
2019-05-14T20:30:38.587Z,102937.63
2019-05-14T20:33:03.760Z,102945.74
2019-05-14T20:35:34.668Z,102946.11
2019-05-14T20:37:58.623Z,102946.11
2019-05-14T20:40:24.568Z,102940.72
2019-05-14T20:42:50.447Z,102943.05
2019-05-14T20:45:18.984Z,102942.48
2019-05-14T20:47:44.365Z,102943.34
2019-05-14T20:50:10.730Z,102955.08
2019-05-14T20:52:36.628Z,102939.83
2019-05-14T20:55:04.973Z,102945.45
2019-05-14T20:57:33.485Z,102942.58
2019-05-14T20:59:58.924Z,102944.94
2019-05-14T21:02:24.817Z,102943.30
2019-05-14T21:04:54.791Z,102939.91
2019-05-14T21:07:18.553Z,102933.73
2019-05-14T21:09:44.460Z,102943.48
2019-05-14T21:12:10.369Z,102931.73
2019-05-14T21:14:41.048Z,102942.03
2019-05-14T21:17:04.163Z,102934.87
2019-05-14T21:19:30.073Z,102921.37
2019-05-14T21:21:58.190Z,102928.56
2019-05-14T21:24:23.877Z,102931.59
2019-05-14T21:26:52.666Z,102928.50
2019-05-14T21:29:18.592Z,102927.25
2019-05-14T21:31:44.529Z,102926.69
2019-05-14T21:34:10.451Z,102938.44
2019-05-14T21:36:36.447Z,102935.80
2019-05-14T21:39:04.845Z,102928.73
2019-05-14T21:41:30.763Z,102929.09
2019-05-14T21:43:58.377Z,102934.81
2019-05-14T21:46:24.547Z,102941.64
2019-05-14T21:48:50.460Z,102937.52
2019-05-14T21:51:18.020Z,102932.61
2019-05-14T21:53:44.689Z,102936.26
2019-05-14T21:56:10.611Z,102935.37
2019-05-14T21:58:38.604Z,102934.87
2019-05-14T22:01:05.239Z,102929.93
2019-05-14T22:03:31.140Z,102924.27
2019-05-14T22:05:59.361Z,102931.08
2019-05-14T22:08:25.136Z,102929.48
2019-05-14T22:10:51.046Z,102922.27
2019-05-14T22:13:18.164Z,102925.02
2019-05-14T22:15:44.192Z,102927.81
2019-05-14T22:18:17.247Z,102927.20
2019-05-14T22:20:38.712Z,102930.86
2019-05-14T22:23:04.789Z,102922.78
2019-05-14T22:25:30.699Z,102926.09
2019-05-14T22:28:09.000Z,102922.19
2019-05-14T22:30:24.470Z,102922.89
2019-05-14T22:32:50.361Z,102913.16
2019-05-14T22:35:18.546Z,102908.23
2019-05-14T22:37:44.088Z,102913.34
2019-05-14T22:40:10.429Z,102906.81
2019-05-14T22:42:36.325Z,102915.00
2019-05-14T22:45:04.658Z,102912.83
2019-05-14T22:47:30.562Z,102919.72
2019-05-14T22:49:59.159Z,102913.47
2019-05-14T22:52:24.299Z,102905.41
2019-05-14T22:54:50.207Z,102918.16
2019-05-14T22:57:16.138Z,102914.16
2019-05-14T22:59:42.031Z,102910.83
2019-05-14T23:02:11.117Z,102921.20
2019-05-14T23:04:35.740Z,102918.46
2019-05-14T23:07:01.650Z,102909.70
2019-05-14T23:09:27.555Z,102910.80
2019-05-14T23:11:53.494Z,102919.22
2019-05-14T23:14:19.423Z,102917.08
2019-05-14T23:16:45.341Z,102915.31
2019-05-14T23:19:11.239Z,102913.47
2019-05-14T23:21:39.086Z,102918.78
2019-05-14T23:24:05.001Z,102912.64
2019-05-14T23:26:30.918Z,102915.39
2019-05-14T23:28:58.773Z,102904.05
2019-05-14T23:31:24.909Z,102907.30
2019-05-14T23:33:50.784Z,102915.71
2019-05-14T23:36:18.335Z,102905.98
2019-05-14T23:38:44.597Z,102901.06
2019-05-14T23:41:10.510Z,102894.65
2019-05-14T23:43:38.832Z,102895.19
2019-05-14T23:46:04.210Z,102898.90
2019-05-14T23:48:30.147Z,102893.25
2019-05-14T23:50:58.346Z,102899.29
2019-05-14T23:53:23.955Z,102889.91
2019-05-14T23:55:49.872Z,102899.06
2019-05-14T23:58:15.777Z,102883.87
